Terminal Aerodrome Forecast
Issued by NWS

Home | Current Version | Previous Version | Graphics & Text | Print | Product List | Glossary On
Versions: 1 2 3 4 5 6 7 8 9 10 11 12 13 14 15 16 17
000
FTUS43 KICT 221100
TAFCNU
TAF
KCNU 221135Z 2212/2312 17008KT P6SM BKN250
      TEMPO 2212/2214 5SM BR
     FM221600 20010KT P6SM FEW070
     FM230200 VRB03KT P6SM SCT250=

USA.gov is the U.S. government's official web portal to all federal, state and local government web resources and services.